createdAt,value
2019-01-11T00:00:55.670Z,84.81
2019-01-11T00:03:24.791Z,84.74
2019-01-11T00:05:53.870Z,84.80
2019-01-11T00:08:23.655Z,84.75
2019-01-11T00:10:52.796Z,84.76
2019-01-11T00:13:21.890Z,84.97
2019-01-11T00:15:51.455Z,84.82
2019-01-11T00:18:20.736Z,84.84
2019-01-11T00:20:49.878Z,84.90
2019-01-11T00:23:18.961Z,84.77
2019-01-11T00:25:47.970Z,84.60
2019-01-11T00:28:16.987Z,84.59
2019-01-11T00:30:46.043Z,84.46
2019-01-11T00:33:15.128Z,84.84
2019-01-11T00:35:44.202Z,84.76
2019-01-11T00:38:13.215Z,84.99
2019-01-11T00:40:42.329Z,84.91
2019-01-11T00:43:15.035Z,85.01
2019-01-11T00:45:40.597Z,84.99
2019-01-11T00:48:09.703Z,85.05
2019-01-11T00:50:38.791Z,84.92
2019-01-11T00:53:09.243Z,85.26
2019-01-11T00:55:39.166Z,85.10
2019-01-11T00:58:08.231Z,85.12
2019-01-11T01:00:37.447Z,85.16
2019-01-11T01:03:06.731Z,85.22
2019-01-11T01:05:36.563Z,84.89
2019-01-11T01:08:05.805Z,85.28
2019-01-11T01:10:34.837Z,84.94
2019-01-11T01:13:03.909Z,85.00
2019-01-11T01:15:33.003Z,85.12
2019-01-11T01:18:02.145Z,85.29
2019-01-11T01:20:31.148Z,85.33
2019-01-11T01:23:00.209Z,85.33
2019-01-11T01:25:29.304Z,85.29
2019-01-11T01:27:58.376Z,85.42
2019-01-11T01:30:27.424Z,84.82
2019-01-11T01:32:56.596Z,85.00
2019-01-11T01:35:25.700Z,84.92
2019-01-11T01:37:54.773Z,84.89
2019-01-11T01:40:23.807Z,84.99
2019-01-11T01:42:52.872Z,84.97
2019-01-11T01:45:21.986Z,84.93
2019-01-11T01:47:51.179Z,84.99
2019-01-11T01:50:20.192Z,85.09
2019-01-11T01:52:49.234Z,84.98
2019-01-11T01:55:18.356Z,84.86
2019-01-11T01:57:47.674Z,84.91
2019-01-11T02:00:18.287Z,85.07
2019-01-11T02:02:47.567Z,84.84
2019-01-11T02:05:16.782Z,84.95
2019-01-11T02:07:45.829Z,85.09
2019-01-11T02:10:14.999Z,85.06
2019-01-11T02:12:44.174Z,84.93
2019-01-11T02:15:13.363Z,84.90
2019-01-11T02:17:42.463Z,84.92
2019-01-11T02:20:14.582Z,84.86
2019-01-11T02:22:43.844Z,85.05
2019-01-11T02:25:13.057Z,85.11
2019-01-11T02:27:42.157Z,84.96
2019-01-11T02:30:16.367Z,85.05
2019-01-11T02:32:52.043Z,85.00
2019-01-11T02:35:14.508Z,84.93
2019-01-11T02:37:43.652Z,85.03
2019-01-11T02:40:12.814Z,84.97
2019-01-11T02:42:42.765Z,84.93
2019-01-11T02:45:13.095Z,85.09
2019-01-11T02:47:42.189Z,85.05
2019-01-11T02:50:11.568Z,84.96
2019-01-11T02:52:40.585Z,84.98
2019-01-11T02:55:10.383Z,84.96
2019-01-11T02:57:39.607Z,85.11
2019-01-11T03:00:15.447Z,84.87
2019-01-11T03:02:44.604Z,85.20
2019-01-11T03:05:21.559Z,85.08
2019-01-11T03:07:50.617Z,85.01
2019-01-11T03:10:21.572Z,85.14
2019-01-11T03:12:51.388Z,85.04
2019-01-11T03:15:20.899Z,85.08
2019-01-11T03:17:49.958Z,84.70
2019-01-11T03:20:19.271Z,84.79
2019-01-11T03:22:48.463Z,84.84
2019-01-11T03:25:19.324Z,84.73
2019-01-11T03:39:56.232Z,84.54
2019-01-11T03:42:25.382Z,84.54
2019-01-11T03:44:54.530Z,84.41
2019-01-11T03:47:23.548Z,84.25
2019-01-11T03:49:54.920Z,84.35
2019-01-11T03:52:21.850Z,84.46
2019-01-11T03:54:50.962Z,84.33
2019-01-11T03:57:20.040Z,84.51
2019-01-11T03:59:50.045Z,84.47
2019-01-11T04:02:19.169Z,84.13
2019-01-11T04:04:48.227Z,84.15
2019-01-11T04:07:17.249Z,84.07
2019-01-11T04:09:46.270Z,84.15
2019-01-11T04:12:15.357Z,84.12
2019-01-11T04:14:44.438Z,84.12
2019-01-11T04:17:13.569Z,84.02
2019-01-11T04:19:42.651Z,84.06
2019-01-11T04:22:16.948Z,83.75
2019-01-11T04:24:59.037Z,83.96
2019-01-11T04:27:28.207Z,83.97
2019-01-11T04:29:57.257Z,84.00
2019-01-11T04:32:26.382Z,84.10
2019-01-11T04:34:55.501Z,84.05
2019-01-11T04:37:29.002Z,83.97
2019-01-11T04:39:58.075Z,84.18
2019-01-11T04:42:28.236Z,84.19
2019-01-11T04:44:57.218Z,84.35
2019-01-11T04:47:26.345Z,84.28
2019-01-11T04:49:56.531Z,84.34
2019-01-11T04:52:27.055Z,84.43
2019-01-11T04:54:56.096Z,84.24
2019-01-11T04:57:25.105Z,84.28
2019-01-11T04:59:54.218Z,84.33
2019-01-11T05:02:23.306Z,84.50
2019-01-11T05:04:52.337Z,84.61
2019-01-11T05:07:21.504Z,84.47
2019-01-11T05:09:50.618Z,84.57
2019-01-11T05:12:19.698Z,84.72
2019-01-11T05:14:48.906Z,84.55
2019-01-11T05:17:17.978Z,84.56
2019-01-11T05:19:47.046Z,84.74
2019-01-11T05:22:16.116Z,84.67
2019-01-11T05:24:45.176Z,84.85
2019-01-11T05:27:14.323Z,84.60
2019-01-11T05:29:43.388Z,84.67
2019-01-11T05:32:12.413Z,84.88
2019-01-11T05:34:41.466Z,84.71
2019-01-11T05:37:10.576Z,84.88
2019-01-11T05:39:39.656Z,84.89
2019-01-11T05:42:08.878Z,84.77
2019-01-11T05:44:37.921Z,84.73
2019-01-11T05:47:07.055Z,84.78
2019-01-11T05:49:37.067Z,85.13
2019-01-11T05:52:06.162Z,84.54
2019-01-11T05:54:35.271Z,84.94
2019-01-11T05:57:04.395Z,84.96
2019-01-11T05:59:33.964Z,84.90
2019-01-11T06:02:04.081Z,84.96
2019-01-11T06:04:48.234Z,84.68
2019-01-11T06:07:22.083Z,84.82
2019-01-11T06:09:51.143Z,84.80
2019-01-11T06:12:20.252Z,84.78
2019-01-11T06:14:49.336Z,84.83
2019-01-11T06:17:18.432Z,84.70
2019-01-11T06:19:47.621Z,84.46
2019-01-11T06:22:16.738Z,84.55
2019-01-11T06:24:45.840Z,84.75
2019-01-11T06:27:15.364Z,84.62
2019-01-11T06:29:44.403Z,84.52
2019-01-11T06:32:13.498Z,84.74
2019-01-11T06:34:46.481Z,84.85
2019-01-11T06:37:15.589Z,84.70
2019-01-11T06:39:44.636Z,84.64
2019-01-11T06:42:18.707Z,84.49
2019-01-11T06:44:47.766Z,84.50
2019-01-11T06:47:18.458Z,84.46
2019-01-11T06:49:46.407Z,84.44
2019-01-11T06:52:15.434Z,84.42
2019-01-11T06:54:44.470Z,84.42
2019-01-11T06:57:13.464Z,84.38
2019-01-11T06:59:42.555Z,84.47
2019-01-11T07:02:11.671Z,84.45
2019-01-11T07:04:40.771Z,84.47
2019-01-11T07:07:09.843Z,84.42
2019-01-11T07:09:46.214Z,84.53
2019-01-11T07:12:15.290Z,84.53
2019-01-11T07:14:44.309Z,84.27
2019-01-11T07:17:13.362Z,84.49
2019-01-11T07:19:42.401Z,84.38
2019-01-11T07:22:11.465Z,84.41
2019-01-11T07:24:40.505Z,84.31
2019-01-11T07:27:09.656Z,84.28
2019-01-11T07:29:39.296Z,84.04
2019-01-11T07:32:08.588Z,84.16
2019-01-11T07:34:37.620Z,84.12
2019-01-11T07:37:06.842Z,84.08
2019-01-11T07:39:38.819Z,84.20
2019-01-11T07:42:08.076Z,84.09
2019-01-11T07:44:38.181Z,84.08
2019-01-11T07:47:07.410Z,83.94
2019-01-11T07:49:36.431Z,84.17
2019-01-11T07:52:05.869Z,84.12
2019-01-11T07:54:37.041Z,83.99
2019-01-11T07:57:06.119Z,84.01
2019-01-11T07:59:36.298Z,84.05
2019-01-11T08:02:05.453Z,83.99
2019-01-11T08:04:34.485Z,84.14
2019-01-11T08:07:03.537Z,84.18
2019-01-11T08:09:32.589Z,84.05
2019-01-11T08:12:02.586Z,84.33
2019-01-11T08:14:32.224Z,84.35
2019-01-11T08:17:02.405Z,84.13
2019-01-11T08:19:31.572Z,83.94
2019-01-11T08:22:00.781Z,84.17
2019-01-11T08:24:29.872Z,84.07
2019-01-11T08:26:59.065Z,83.85
2019-01-11T08:29:28.189Z,83.84
2019-01-11T08:32:00.738Z,83.81
2019-01-11T08:34:31.198Z,83.63
2019-01-11T08:37:00.328Z,83.79
2019-01-11T08:39:32.559Z,83.68
2019-01-11T08:41:59.172Z,83.69
2019-01-11T08:44:28.309Z,83.66
2019-01-11T08:46:57.790Z,83.50
2019-01-11T08:49:27.806Z,83.67
2019-01-11T08:51:56.949Z,83.51
2019-01-11T08:54:26.817Z,83.37
2019-01-11T08:56:55.831Z,83.31
2019-01-11T08:59:24.973Z,83.27
2019-01-11T09:01:54.022Z,83.48
2019-01-11T09:04:23.157Z,83.43
2019-01-11T09:06:52.744Z,83.14
2019-01-11T09:09:26.764Z,83.29
2019-01-11T09:11:56.232Z,83.28
2019-01-11T09:14:38.322Z,83.08
2019-01-11T09:17:07.373Z,83.23
2019-01-11T09:19:36.706Z,83.14
2019-01-11T09:22:06.590Z,83.12
2019-01-11T09:24:35.699Z,82.97
2019-01-11T09:27:05.696Z,82.74
2019-01-11T09:29:34.929Z,82.74
2019-01-11T09:32:04.016Z,82.74
2019-01-11T09:34:33.855Z,82.31
2019-01-11T09:37:03.031Z,82.49
2019-01-11T09:39:32.145Z,82.40
2019-01-11T09:42:01.154Z,82.20
2019-01-11T09:44:30.794Z,82.31
2019-01-11T09:46:59.821Z,82.15
2019-01-11T09:49:28.907Z,82.13
2019-01-11T09:51:58.173Z,81.85
2019-01-11T09:54:27.997Z,81.92
2019-01-11T09:56:57.372Z,81.78
2019-01-11T09:59:27.322Z,81.93
2019-01-11T10:02:03.415Z,81.76
2019-01-11T10:04:36.258Z,81.79
2019-01-11T10:07:11.897Z,81.78
2019-01-11T10:09:41.160Z,81.84
2019-01-11T10:12:10.720Z,81.61
2019-01-11T10:14:40.731Z,81.64
2019-01-11T10:17:09.948Z,81.55
2019-01-11T10:19:39.175Z,81.51
2019-01-11T10:22:08.653Z,81.18
2019-01-11T10:24:37.984Z,80.86
2019-01-11T10:27:08.158Z,81.15
2019-01-11T10:29:41.779Z,81.14
2019-01-11T10:32:10.846Z,81.20
2019-01-11T10:34:41.478Z,80.78
2019-01-11T10:37:12.733Z,80.89
2019-01-11T10:39:42.639Z,80.60
2019-01-11T10:42:12.438Z,80.71
2019-01-11T10:44:41.464Z,80.65
2019-01-11T10:47:11.155Z,80.47
2019-01-11T10:49:40.429Z,80.46
2019-01-11T10:52:09.558Z,80.50
2019-01-11T10:54:41.223Z,80.48
2019-01-11T10:57:10.414Z,80.68
2019-01-11T10:59:40.238Z,80.71
2019-01-11T11:02:09.942Z,80.56
2019-01-11T11:04:39.085Z,80.66
2019-01-11T11:07:08.724Z,80.92
2019-01-11T11:09:37.933Z,80.47
2019-01-11T11:12:12.191Z,80.52
2019-01-11T11:14:41.461Z,80.58
2019-01-11T11:17:11.397Z,80.60
2019-01-11T11:19:40.631Z,80.07
2019-01-11T11:22:10.006Z,79.89
2019-01-11T11:24:39.647Z,79.88
2019-01-11T11:27:08.844Z,79.78
2019-01-11T11:29:40.534Z,79.79
2019-01-11T11:32:09.742Z,79.72
2019-01-11T11:34:43.958Z,79.51
2019-01-11T11:37:13.332Z,79.42
2019-01-11T11:39:42.656Z,79.31
2019-01-11T11:42:11.745Z,79.44
2019-01-11T11:44:40.783Z,79.22
2019-01-11T11:47:10.143Z,79.47
2019-01-11T11:49:39.598Z,79.61
2019-01-11T11:52:08.741Z,79.32
2019-01-11T11:54:38.435Z,79.17
2019-01-11T11:57:07.664Z,79.00
2019-01-11T11:59:36.797Z,79.21
2019-01-11T12:02:06.066Z,79.06
2019-01-11T12:04:35.142Z,78.87
2019-01-11T12:07:07.631Z,78.73
2019-01-11T12:09:34.196Z,78.48
2019-01-11T12:12:05.739Z,78.37
2019-01-11T12:14:34.903Z,78.40
2019-01-11T12:17:05.126Z,78.21
2019-01-11T12:19:34.215Z,77.97
2019-01-11T12:22:03.445Z,77.82
2019-01-11T12:24:33.747Z,77.99
2019-01-11T12:27:02.853Z,77.76
2019-01-11T12:29:41.952Z,77.20
2019-01-11T12:32:11.079Z,76.58
2019-01-11T12:34:40.474Z,76.45
2019-01-11T12:37:10.552Z,76.42
2019-01-11T12:39:41.485Z,76.35
2019-01-11T12:42:13.333Z,76.25
2019-01-11T12:44:40.757Z,76.25
2019-01-11T12:47:10.415Z,76.21
2019-01-11T12:49:40.196Z,76.14
2019-01-11T12:52:12.522Z,75.94
2019-01-11T12:54:44.631Z,76.00
2019-01-11T12:57:14.085Z,75.60
2019-01-11T12:59:43.125Z,75.71
2019-01-11T13:02:13.404Z,75.39
2019-01-11T13:04:42.706Z,75.55
2019-01-11T13:07:13.072Z,75.02
2019-01-11T13:09:42.507Z,74.96
2019-01-11T13:12:12.979Z,75.17
2019-01-11T13:14:44.360Z,75.03
2019-01-11T13:17:14.139Z,75.04
2019-01-11T13:19:43.313Z,75.09
2019-01-11T13:22:12.673Z,75.10
2019-01-11T13:24:41.951Z,75.24
2019-01-11T13:27:11.134Z,75.45
2019-01-11T13:29:40.520Z,75.56
2019-01-11T13:32:09.620Z,75.47
2019-01-11T13:34:38.851Z,75.63
2019-01-11T13:37:08.108Z,75.82
2019-01-11T13:39:38.078Z,75.95
2019-01-11T13:42:07.247Z,75.77
2019-01-11T13:44:37.405Z,75.66
2019-01-11T13:47:06.627Z,75.63
2019-01-11T13:49:35.912Z,75.46
2019-01-11T13:52:07.303Z,75.59
2019-01-11T13:54:38.129Z,75.71
2019-01-11T13:57:10.416Z,75.75
2019-01-11T13:59:41.567Z,76.02
2019-01-11T14:02:10.150Z,76.13
2019-01-11T14:04:39.205Z,76.08
2019-01-11T14:07:08.440Z,76.00
2019-01-11T14:09:38.647Z,76.03
2019-01-11T14:12:12.909Z,75.70
2019-01-11T14:14:42.283Z,75.99
2019-01-11T14:17:13.012Z,75.93
2019-01-11T14:19:44.570Z,75.91
2019-01-11T14:22:13.970Z,75.81
2019-01-11T14:24:43.823Z,75.83
2019-01-11T14:27:13.079Z,75.82
2019-01-11T14:29:42.675Z,75.70
2019-01-11T14:32:12.971Z,75.99
2019-01-11T14:34:42.200Z,75.71
2019-01-11T14:37:11.861Z,75.71
2019-01-11T14:39:41.829Z,75.74
2019-01-11T14:42:12.173Z,75.91
2019-01-11T14:44:43.106Z,76.01
2019-01-11T14:47:13.139Z,75.90
2019-01-11T14:49:43.248Z,76.12
2019-01-11T14:52:20.148Z,76.09
2019-01-11T14:54:44.597Z,76.24
2019-01-11T14:57:14.321Z,76.31
2019-01-11T14:59:47.287Z,76.20
2019-01-11T15:02:16.531Z,76.35
2019-01-11T15:04:46.530Z,76.31
2019-01-11T15:07:15.821Z,76.30
2019-01-11T15:09:45.937Z,76.37
2019-01-11T15:14:53.324Z,75.86
2019-01-11T15:17:22.467Z,76.09
2019-01-11T15:19:51.812Z,75.87
2019-01-11T15:22:26.597Z,75.91
2019-01-11T15:25:02.937Z,75.74
2019-01-11T15:27:33.526Z,75.80
2019-01-11T15:30:02.639Z,75.72
2019-01-11T15:32:36.634Z,75.68
2019-01-11T15:35:11.260Z,75.72
2019-01-11T15:37:40.529Z,75.86
2019-01-11T15:40:14.825Z,75.95
2019-01-11T15:42:52.531Z,75.69
2019-01-11T15:45:21.894Z,76.08
2019-01-11T15:47:51.325Z,76.06
2019-01-11T15:50:31.194Z,76.30
2019-01-11T15:53:01.784Z,76.17
2019-01-11T15:55:37.947Z,76.16
2019-01-11T15:58:09.548Z,76.14
2019-01-11T16:00:44.222Z,76.29
2019-01-11T16:03:14.341Z,76.27
2019-01-11T16:05:48.679Z,76.14
2019-01-11T16:08:21.249Z,76.28
2019-01-11T16:11:23.791Z,76.27
2019-01-11T16:14:09.219Z,76.38
2019-01-11T16:16:46.361Z,76.32
2019-01-11T16:19:18.767Z,76.44
2019-01-11T16:21:50.310Z,76.69
2019-01-11T16:24:20.475Z,76.64
2019-01-11T16:29:28.650Z,76.71
2019-01-11T16:32:00.720Z,76.79
2019-01-11T16:34:33.224Z,76.75
2019-01-11T16:37:02.505Z,76.91
2019-01-11T16:39:32.002Z,76.86
2019-01-11T16:42:02.240Z,76.95
2019-01-11T16:44:31.395Z,77.00
2019-01-11T16:47:01.611Z,77.22
2019-01-11T16:49:33.593Z,76.94
2019-01-11T16:52:03.844Z,77.16
2019-01-11T16:54:33.908Z,77.25
2019-01-11T16:57:05.452Z,77.23
2019-01-11T16:59:42.062Z,77.21
2019-01-11T17:02:11.322Z,77.23
2019-01-11T17:04:41.968Z,77.42
2019-01-11T17:08:25.790Z,77.57
2019-01-11T17:10:56.012Z,77.56
2019-01-11T17:13:25.257Z,77.66
2019-01-11T17:15:54.461Z,77.77
2019-01-11T17:18:34.688Z,77.49
2019-01-11T17:21:11.599Z,77.91
2019-01-11T17:23:44.681Z,78.08
2019-01-11T17:26:13.803Z,77.90
2019-01-11T17:28:42.985Z,78.18
2019-01-11T17:31:12.055Z,78.15
2019-01-11T17:33:41.960Z,78.14
2019-01-11T17:36:11.859Z,78.43
2019-01-11T17:38:40.923Z,78.43
2019-01-11T17:41:10.063Z,78.29
2019-01-11T17:43:39.554Z,78.53
2019-01-11T17:46:08.945Z,78.45
2019-01-11T17:48:39.083Z,78.55
2019-01-11T17:51:07.257Z,78.62
2019-01-11T17:53:37.832Z,78.75
2019-01-11T17:56:06.930Z,78.84
2019-01-11T17:58:36.941Z,78.93
2019-01-11T18:01:06.017Z,78.97
2019-01-11T18:03:35.109Z,78.83
2019-01-11T18:06:05.072Z,79.02
2019-01-11T18:08:36.128Z,79.10
2019-01-11T18:11:05.355Z,79.14
2019-01-11T18:13:35.017Z,79.13
2019-01-11T18:16:04.118Z,78.95
2019-01-11T18:18:34.755Z,79.39
2019-01-11T18:21:03.979Z,79.38
2019-01-11T18:23:33.152Z,79.28
2019-01-11T18:26:03.093Z,79.30
2019-01-11T18:28:32.948Z,79.23
2019-01-11T18:31:02.272Z,79.32
2019-01-11T18:33:31.337Z,79.12
2019-01-11T18:36:00.804Z,79.41
2019-01-11T18:38:30.042Z,79.16
2019-01-11T18:41:00.250Z,79.00
2019-01-11T18:43:29.366Z,79.15
2019-01-11T18:45:58.438Z,79.17
2019-01-11T18:48:27.670Z,79.06
2019-01-11T18:50:57.670Z,79.19
2019-01-11T18:53:27.810Z,79.13
2019-01-11T18:55:56.901Z,78.95
2019-01-11T18:58:26.032Z,79.02
2019-01-11T19:00:56.627Z,78.94
2019-01-11T19:03:26.048Z,78.93
2019-01-11T19:05:56.587Z,78.87
2019-01-11T19:08:27.291Z,78.90
2019-01-11T19:17:02.093Z,78.74
2019-01-11T19:19:31.170Z,78.89
2019-01-11T19:22:06.162Z,78.79
2019-01-11T19:24:36.365Z,78.84
2019-01-11T19:27:07.561Z,78.84
2019-01-11T19:29:38.078Z,78.75
2019-01-11T19:32:07.100Z,78.99
2019-01-11T19:34:37.124Z,78.78
2019-01-11T19:37:06.212Z,79.00
2019-01-11T19:39:36.249Z,79.07
2019-01-11T19:42:05.428Z,79.04
2019-01-11T19:44:35.273Z,79.14
2019-01-11T19:47:04.970Z,79.09
2019-01-11T19:49:34.945Z,79.12
2019-01-11T19:52:04.295Z,79.04
2019-01-11T19:54:36.127Z,79.12
2019-01-11T19:57:05.224Z,79.12
2019-01-11T19:59:34.447Z,79.20
2019-01-11T20:02:03.575Z,79.12
2019-01-11T20:04:32.684Z,79.18
2019-01-11T20:07:02.732Z,79.17
2019-01-11T20:09:33.538Z,79.40
2019-01-11T20:12:02.648Z,79.32
2019-01-11T20:14:32.066Z,79.28
2019-01-11T20:17:01.279Z,79.38
2019-01-11T20:19:32.573Z,79.43
2019-01-11T20:22:01.986Z,79.36
2019-01-11T20:24:31.106Z,79.31
2019-01-11T20:27:00.210Z,79.39
2019-01-11T20:29:29.456Z,79.48
2019-01-11T20:31:59.290Z,79.63
2019-01-11T20:34:28.459Z,79.45
2019-01-11T20:37:13.251Z,79.64
2019-01-11T20:39:42.345Z,79.70
2019-01-11T20:42:11.519Z,79.67
2019-01-11T20:44:40.621Z,79.66
2019-01-11T20:47:10.131Z,79.98
2019-01-11T20:49:39.237Z,79.94
2019-01-11T20:52:08.436Z,80.13
2019-01-11T20:54:37.526Z,80.16
2019-01-11T20:57:06.631Z,80.45
2019-01-11T20:59:35.768Z,80.47
2019-01-11T21:02:06.738Z,80.58
2019-01-11T21:04:35.800Z,80.54
2019-01-11T21:07:04.972Z,80.85
2019-01-11T21:09:34.976Z,80.91
2019-01-11T21:12:04.999Z,81.16
2019-01-11T21:14:34.720Z,81.14
2019-01-11T21:17:04.601Z,81.17
2019-01-11T21:19:33.628Z,81.30
2019-01-11T21:22:03.224Z,81.27
2019-01-11T21:24:32.986Z,81.45
2019-01-11T21:27:02.222Z,81.76
2019-01-11T21:29:33.276Z,81.71
2019-01-11T21:32:02.376Z,81.75
2019-01-11T21:34:31.526Z,81.61
2019-01-11T21:37:00.907Z,81.79
2019-01-11T21:39:31.332Z,81.93
2019-01-11T21:42:00.804Z,81.87
2019-01-11T21:44:30.963Z,81.82
2019-01-11T21:47:00.433Z,81.88
2019-01-11T21:49:29.504Z,81.84
2019-01-11T21:51:58.628Z,82.07
2019-01-11T21:54:27.799Z,82.02
2019-01-11T21:56:57.348Z,81.96
2019-01-11T21:59:26.415Z,81.84
2019-01-11T22:01:57.080Z,81.86
2019-01-11T22:04:26.245Z,81.83
2019-01-11T22:06:55.452Z,81.76
2019-01-11T22:09:24.638Z,81.83
2019-01-11T22:11:53.848Z,81.65
2019-01-11T22:14:24.897Z,81.72
2019-01-11T22:16:54.115Z,81.66
2019-01-11T22:19:23.992Z,81.46
2019-01-11T22:21:53.275Z,81.57
2019-01-11T22:24:22.297Z,81.47
2019-01-11T22:26:51.426Z,81.24
2019-01-11T22:29:20.486Z,81.26
2019-01-11T22:31:49.967Z,81.09
2019-01-11T22:34:19.782Z,81.22
2019-01-11T22:36:51.216Z,81.13
2019-01-11T22:39:21.534Z,81.01
2019-01-11T22:41:52.093Z,80.92
2019-01-11T22:44:21.866Z,81.05
2019-01-11T22:46:52.860Z,80.83
2019-01-11T22:49:22.319Z,80.78
2019-01-11T22:51:52.206Z,81.00
2019-01-11T22:54:22.049Z,80.78
2019-01-11T22:56:53.569Z,80.93
2019-01-11T22:59:24.695Z,80.89
2019-01-11T23:02:11.989Z,80.91
2019-01-11T23:04:41.031Z,80.86
2019-01-11T23:07:19.147Z,80.87
2019-01-11T23:10:00.524Z,81.01
2019-01-11T23:12:41.185Z,81.01
2019-01-11T23:15:15.549Z,81.11
2019-01-11T23:17:55.105Z,81.08
2019-01-11T23:20:24.295Z,81.10
2019-01-11T23:22:53.494Z,81.06
2019-01-11T23:25:22.587Z,81.02
2019-01-11T23:27:51.630Z,81.11
2019-01-11T23:30:22.029Z,80.96
2019-01-11T23:32:51.207Z,80.88
2019-01-11T23:35:20.407Z,81.06
2019-01-11T23:37:50.013Z,80.95
2019-01-11T23:40:19.109Z,80.94
2019-01-11T23:42:48.324Z,81.14
2019-01-11T23:45:18.593Z,81.11
2019-01-11T23:47:47.997Z,81.07
2019-01-11T23:50:17.874Z,81.28
2019-01-11T23:52:46.926Z,81.27
2019-01-11T23:55:16.755Z,81.25
2019-01-11T23:57:47.062Z,81.20
